Airport View

Enter AWOS ICAO identifier for current METAR.

ex. KFNL

KCSM 221753Z 02017G21KT 10SM SCT038 28/17 A3020 RMK AO2 PK WND 36030/1720 SLP199 T02830172 10283 20200 51003

22 Jul 2019 18:57

Frequency: 118.450

Phone: 580-562-4811

Other Area AWOS: KELK - KCLK - KHBR - KOJA

TAF KCSM 221720Z 2218/2318 02016G24KT P6SM BKN030 FM222200 02016G24KT P6SM SCT030 FM230100 05012KT P6SM SCT250 FM231500 04011KT P6SM SKC